EWG51C EDDL-EKCH
Flight info
| Callsign | EWG51C |
|---|---|
| Flight time | 1h 2m |
| Altitude | 39000 |
| Route | MEVEL4T/23L MEVEL Y850 BASUM M170 STADE DCT MEGAR P605 GESKA Z711 MONAK |
| Aircraft | A319/M-SDE3FGHIRWY/LB1 |
Departure
| Time | 2026-05-04 18:28 |
|---|---|
| Airport | Düsseldorf Airport (EDDL) |
Arrival
| Time | 2026-05-04 19:30 |
|---|---|
| Airport | Copenhagen Kastrup Airport (EKCH) |
| Time | Latitude | Longitude | Altitude | Speed | Heading |
|---|---|---|---|---|---|
| 2026-05-04 17:47 | 51.28187 | 6.76569 | 124 ft | 0 kts | 121° |
| 2026-05-04 18:16 | 51.28197 | 6.76543 | 123 ft | 4 kts | 119° |
| 2026-05-04 18:17 | 51.28223 | 6.76468 | 123 ft | 4 kts | 128° |
| 2026-05-04 18:17 | 51.28238 | 6.76445 | 122 ft | 4 kts | 194° |
| 2026-05-04 18:17 | 51.28240 | 6.76443 | 122 ft | 0 kts | 223° |
| 2026-05-04 18:20 | 51.28232 | 6.76428 | 122 ft | 4 kts | 231° |
| 2026-05-04 18:21 | 51.28204 | 6.76369 | 124 ft | 9 kts | 233° |
| 2026-05-04 18:21 | 51.28175 | 6.76264 | 127 ft | 12 kts | 282° |
| 2026-05-04 18:21 | 51.28241 | 6.76256 | 126 ft | 13 kts | 50° |
| 2026-05-04 18:21 | 51.28306 | 6.76394 | 127 ft | 19 kts | 52° |
| 2026-05-04 18:22 | 51.28393 | 6.76574 | 124 ft | 22 kts | 52° |
| 2026-05-04 18:22 | 51.28493 | 6.76780 | 126 ft | 24 kts | 52° |
| 2026-05-04 18:22 | 51.28598 | 6.77005 | 129 ft | 26 kts | 53° |
| 2026-05-04 18:22 | 51.28713 | 6.77249 | 130 ft | 29 kts | 53° |
| 2026-05-04 18:23 | 51.28842 | 6.77518 | 130 ft | 32 kts | 53° |
| 2026-05-04 18:23 | 51.28976 | 6.77799 | 126 ft | 31 kts | 53° |
| 2026-05-04 18:23 | 51.29098 | 6.78056 | 131 ft | 27 kts | 53° |
| 2026-05-04 18:23 | 51.29198 | 6.78266 | 139 ft | 21 kts | 52° |
| 2026-05-04 18:24 | 51.29269 | 6.78413 | 145 ft | 13 kts | 52° |
| 2026-05-04 18:24 | 51.29308 | 6.78495 | 148 ft | 7 kts | 52° |
| 2026-05-04 18:24 | 51.29339 | 6.78551 | 151 ft | 6 kts | 38° |
| 2026-05-04 18:24 | 51.29377 | 6.78573 | 152 ft | 6 kts | 8° |
| 2026-05-04 18:25 | 51.29425 | 6.78569 | 153 ft | 8 kts | 355° |
| 2026-05-04 18:25 | 51.29435 | 6.78568 | 152 ft | 0 kts | 355° |
| 2026-05-04 18:26 | 51.29448 | 6.78566 | 152 ft | 5 kts | 355° |
| 2026-05-04 18:27 | 51.29501 | 6.78559 | 152 ft | 10 kts | 354° |
| 2026-05-04 18:27 | 51.29523 | 6.78479 | 151 ft | 9 kts | 241° |
| 2026-05-04 18:27 | 51.29474 | 6.78375 | 148 ft | 16 kts | 232° |
| 2026-05-04 18:27 | 51.29334 | 6.78081 | 140 ft | 65 kts | 233° |
| 2026-05-04 18:28 | 51.28918 | 6.77212 | 127 ft | 129 kts | 232° |
| 2026-05-04 18:28 | 51.28310 | 6.75954 | 507 ft | 141 kts | 231° |
| 2026-05-04 18:28 | 51.27722 | 6.74730 | 1126 ft | 139 kts | 229° |
| 2026-05-04 18:28 | 51.27128 | 6.73464 | 1546 ft | 151 kts | 232° |
| 2026-05-04 18:29 | 51.26782 | 6.71746 | 1811 ft | 182 kts | 268° |
| 2026-05-04 18:29 | 51.27353 | 6.69835 | 2248 ft | 206 kts | 316° |
| 2026-05-04 18:29 | 51.28627 | 6.68772 | 2972 ft | 211 kts | 343° |
| 2026-05-04 18:29 | 51.30105 | 6.68607 | 3698 ft | 222 kts | 4° |
| 2026-05-04 18:30 | 51.33514 | 6.69003 | 4761 ft | 268 kts | 4° |
| 2026-05-04 18:30 | 51.35409 | 6.69214 | 5665 ft | 276 kts | 4° |
| 2026-05-04 18:30 | 51.37345 | 6.69424 | 6665 ft | 281 kts | 4° |
| 2026-05-04 18:31 | 51.39310 | 6.69616 | 7653 ft | 284 kts | 3° |
| 2026-05-04 18:31 | 51.41293 | 6.69688 | 8649 ft | 287 kts | 1° |
| 2026-05-04 18:31 | 51.43296 | 6.69686 | 9649 ft | 289 kts | 0° |
| 2026-05-04 18:31 | 51.45332 | 6.69658 | 10378 ft | 300 kts | 0° |
| 2026-05-04 18:32 | 51.47500 | 6.69629 | 10676 ft | 324 kts | 0° |
| 2026-05-04 18:32 | 51.49799 | 6.69605 | 11199 ft | 336 kts | 0° |
| 2026-05-04 18:32 | 51.52155 | 6.69593 | 11921 ft | 341 kts | 0° |
| 2026-05-04 18:32 | 51.53737 | 6.69594 | 12420 ft | 344 kts | 1° |
| 2026-05-04 18:33 | 51.56148 | 6.69603 | 13169 ft | 348 kts | 1° |
| 2026-05-04 18:33 | 51.58574 | 6.69919 | 13865 ft | 352 kts | 12° |
| 2026-05-04 18:33 | 51.60916 | 6.71112 | 14486 ft | 356 kts | 25° |
| 2026-05-04 18:33 | 51.63070 | 6.73155 | 15143 ft | 358 kts | 38° |
| 2026-05-04 18:34 | 51.64876 | 6.75905 | 15788 ft | 361 kts | 51° |
| 2026-05-04 18:34 | 51.66404 | 6.79156 | 16419 ft | 367 kts | 55° |
| 2026-05-04 18:34 | 51.67936 | 6.82489 | 16998 ft | 373 kts | 55° |
| 2026-05-04 18:34 | 51.69488 | 6.85876 | 17638 ft | 378 kts | 55° |
| 2026-05-04 18:35 | 51.71063 | 6.89314 | 18282 ft | 383 kts | 55° |
| 2026-05-04 18:35 | 51.72660 | 6.92801 | 18846 ft | 388 kts | 55° |
| 2026-05-04 18:35 | 51.74269 | 6.96315 | 19413 ft | 392 kts | 55° |
| 2026-05-04 18:35 | 51.75902 | 6.99888 | 19983 ft | 397 kts | 55° |
| 2026-05-04 18:36 | 51.77547 | 7.03489 | 20555 ft | 401 kts | 54° |
| 2026-05-04 18:36 | 51.79213 | 7.07142 | 21114 ft | 406 kts | 54° |
| 2026-05-04 18:36 | 51.80873 | 7.10793 | 21659 ft | 410 kts | 54° |
| 2026-05-04 18:36 | 51.82572 | 7.14530 | 22203 ft | 414 kts | 54° |
| 2026-05-04 18:37 | 51.84285 | 7.18301 | 22758 ft | 418 kts | 55° |
| 2026-05-04 18:37 | 51.86126 | 7.21973 | 23279 ft | 424 kts | 46° |
| 2026-05-04 18:37 | 51.88259 | 7.25292 | 23755 ft | 428 kts | 44° |
| 2026-05-04 18:37 | 51.90410 | 7.28665 | 24186 ft | 432 kts | 45° |
| 2026-05-04 18:38 | 51.92570 | 7.32072 | 24630 ft | 435 kts | 45° |
| 2026-05-04 18:38 | 51.94753 | 7.35510 | 25024 ft | 440 kts | 44° |
| 2026-05-04 18:38 | 51.96962 | 7.38973 | 25413 ft | 445 kts | 44° |
| 2026-05-04 18:38 | 51.99206 | 7.42481 | 25830 ft | 448 kts | 44° |
| 2026-05-04 18:39 | 52.01461 | 7.46001 | 26245 ft | 452 kts | 44° |
| 2026-05-04 18:39 | 52.03740 | 7.49564 | 26660 ft | 455 kts | 44° |
| 2026-05-04 18:39 | 52.06029 | 7.53150 | 27090 ft | 459 kts | 44° |
| 2026-05-04 18:39 | 52.08328 | 7.56763 | 27515 ft | 462 kts | 44° |
| 2026-05-04 18:40 | 52.10647 | 7.60417 | 27935 ft | 465 kts | 44° |
| 2026-05-04 18:40 | 52.12977 | 7.64101 | 28354 ft | 468 kts | 44° |
| 2026-05-04 18:40 | 52.15325 | 7.67818 | 28765 ft | 472 kts | 44° |
| 2026-05-04 18:40 | 52.17655 | 7.71509 | 29160 ft | 475 kts | 44° |
| 2026-05-04 18:41 | 52.20030 | 7.75274 | 29554 ft | 478 kts | 44° |
| 2026-05-04 18:41 | 52.22425 | 7.79082 | 29947 ft | 481 kts | 44° |
| 2026-05-04 18:41 | 52.24831 | 7.82914 | 30275 ft | 485 kts | 44° |
| 2026-05-04 18:41 | 52.27254 | 7.86778 | 30601 ft | 488 kts | 44° |
| 2026-05-04 18:42 | 52.29690 | 7.90668 | 30875 ft | 492 kts | 44° |
| 2026-05-04 18:42 | 52.32153 | 7.94595 | 31167 ft | 495 kts | 44° |
| 2026-05-04 18:42 | 52.34621 | 7.98532 | 31487 ft | 497 kts | 44° |
| 2026-05-04 18:42 | 52.37099 | 8.02494 | 31851 ft | 498 kts | 44° |
| 2026-05-04 18:43 | 52.39573 | 8.06464 | 32298 ft | 498 kts | 44° |
| 2026-05-04 18:43 | 52.42045 | 8.10444 | 32740 ft | 497 kts | 44° |
| 2026-05-04 18:43 | 52.44511 | 8.14429 | 33179 ft | 497 kts | 44° |
| 2026-05-04 18:43 | 52.46970 | 8.18406 | 33609 ft | 497 kts | 44° |
| 2026-05-04 18:44 | 52.49440 | 8.22405 | 34064 ft | 497 kts | 43° |
| 2026-05-04 18:44 | 52.51067 | 8.25040 | 34316 ft | 497 kts | 43° |
| 2026-05-04 18:44 | 52.54351 | 8.30363 | 34882 ft | 495 kts | 43° |
| 2026-05-04 18:44 | 52.56794 | 8.34329 | 35331 ft | 492 kts | 43° |
| 2026-05-04 18:45 | 52.59220 | 8.38282 | 35767 ft | 490 kts | 44° |
| 2026-05-04 18:45 | 52.61640 | 8.42232 | 36199 ft | 488 kts | 44° |
| 2026-05-04 18:45 | 52.64044 | 8.46163 | 36621 ft | 486 kts | 44° |
| 2026-05-04 18:45 | 52.66408 | 8.50033 | 37026 ft | 484 kts | 44° |
| 2026-05-04 18:46 | 52.68791 | 8.53934 | 37425 ft | 482 kts | 44° |
| 2026-05-04 18:46 | 52.71161 | 8.57819 | 37819 ft | 480 kts | 43° |
| 2026-05-04 18:46 | 52.73526 | 8.61701 | 38185 ft | 479 kts | 43° |
| 2026-05-04 18:46 | 52.75882 | 8.65577 | 38554 ft | 477 kts | 44° |
| 2026-05-04 18:47 | 52.78225 | 8.69440 | 38838 ft | 476 kts | 44° |
| 2026-05-04 18:47 | 52.80569 | 8.73314 | 38956 ft | 476 kts | 44° |
| 2026-05-04 18:47 | 52.82908 | 8.77189 | 38990 ft | 475 kts | 44° |
| 2026-05-04 18:48 | 52.87577 | 8.84938 | 38993 ft | 475 kts | 44° |
| 2026-05-04 18:48 | 52.92238 | 8.92683 | 39005 ft | 475 kts | 43° |
| 2026-05-04 18:49 | 52.96895 | 9.00448 | 38995 ft | 474 kts | 44° |
| 2026-05-04 18:49 | 53.01530 | 9.08223 | 38992 ft | 473 kts | 44° |
| 2026-05-04 18:50 | 53.06163 | 9.16005 | 38988 ft | 474 kts | 44° |
| 2026-05-04 18:50 | 53.10799 | 9.23809 | 38975 ft | 474 kts | 44° |
| 2026-05-04 18:51 | 53.15402 | 9.31593 | 38972 ft | 474 kts | 44° |
| 2026-05-04 18:51 | 53.20025 | 9.39442 | 38974 ft | 474 kts | 44° |
| 2026-05-04 18:52 | 53.24649 | 9.47311 | 38967 ft | 474 kts | 44° |
| 2026-05-04 18:52 | 53.29262 | 9.55202 | 38971 ft | 475 kts | 44° |
| 2026-05-04 18:53 | 53.33870 | 9.63104 | 38977 ft | 475 kts | 44° |
| 2026-05-04 18:53 | 53.38481 | 9.71009 | 38997 ft | 474 kts | 44° |
| 2026-05-04 18:54 | 53.43081 | 9.78929 | 38992 ft | 473 kts | 44° |
| 2026-05-04 18:54 | 53.47672 | 9.86876 | 38980 ft | 476 kts | 44° |
| 2026-05-04 18:55 | 53.52294 | 9.94905 | 38974 ft | 479 kts | 44° |
| 2026-05-04 18:55 | 53.59406 | 10.06762 | 38969 ft | 478 kts | 32° |
| 2026-05-04 18:56 | 53.62301 | 10.09436 | 38968 ft | 472 kts | 17° |
| 2026-05-04 18:56 | 53.65453 | 10.10847 | 38962 ft | 466 kts | 7° |
| 2026-05-04 18:56 | 53.71834 | 10.12870 | 38958 ft | 467 kts | 7° |
| 2026-05-04 18:57 | 53.78237 | 10.14900 | 38978 ft | 468 kts | 7° |
| 2026-05-04 18:57 | 53.84654 | 10.16961 | 38994 ft | 469 kts | 7° |
| 2026-05-04 18:58 | 53.91023 | 10.19032 | 38985 ft | 469 kts | 7° |
| 2026-05-04 18:58 | 53.97449 | 10.21119 | 38983 ft | 470 kts | 7° |
| 2026-05-04 18:59 | 54.03885 | 10.23211 | 38982 ft | 470 kts | 7° |
| 2026-05-04 18:59 | 54.10309 | 10.25301 | 38992 ft | 470 kts | 7° |
| 2026-05-04 19:00 | 54.16741 | 10.27405 | 39011 ft | 470 kts | 7° |
| 2026-05-04 19:00 | 54.23173 | 10.29518 | 39005 ft | 470 kts | 7° |
| 2026-05-04 19:01 | 54.29602 | 10.31632 | 38995 ft | 470 kts | 7° |
| 2026-05-04 19:01 | 54.36029 | 10.33757 | 39010 ft | 470 kts | 7° |
| 2026-05-04 19:02 | 54.42456 | 10.35896 | 39001 ft | 470 kts | 7° |
| 2026-05-04 19:02 | 54.48885 | 10.38034 | 38997 ft | 470 kts | 7° |
| 2026-05-04 19:03 | 54.52059 | 10.39455 | 38990 ft | 474 kts | 18° |
| 2026-05-04 19:03 | 54.55131 | 10.41542 | 38991 ft | 475 kts | 19° |
| 2026-05-04 19:03 | 54.61275 | 10.45767 | 39001 ft | 475 kts | 19° |
| 2026-05-04 19:04 | 54.67419 | 10.50028 | 38997 ft | 475 kts | 19° |
| 2026-05-04 19:04 | 54.70329 | 10.52619 | 38755 ft | 482 kts | 31° |
| 2026-05-04 19:04 | 54.73010 | 10.56236 | 37868 ft | 492 kts | 37° |
| 2026-05-04 19:05 | 54.75608 | 10.60047 | 37439 ft | 487 kts | 38° |
| 2026-05-04 19:05 | 54.78168 | 10.63883 | 36851 ft | 486 kts | 38° |
| 2026-05-04 19:05 | 54.80718 | 10.67722 | 36215 ft | 486 kts | 38° |
| 2026-05-04 19:05 | 54.83268 | 10.71546 | 35575 ft | 485 kts | 38° |
| 2026-05-04 19:06 | 54.85826 | 10.75368 | 34908 ft | 485 kts | 38° |
| 2026-05-04 19:06 | 54.88388 | 10.79179 | 34226 ft | 485 kts | 37° |
| 2026-05-04 19:06 | 54.90957 | 10.82987 | 33438 ft | 485 kts | 37° |
| 2026-05-04 19:06 | 54.93526 | 10.86794 | 32503 ft | 488 kts | 37° |
| 2026-05-04 19:07 | 54.96123 | 10.90647 | 31556 ft | 492 kts | 37° |
| 2026-05-04 19:07 | 54.98716 | 10.94508 | 30735 ft | 493 kts | 37° |
| 2026-05-04 19:07 | 55.01321 | 10.98406 | 29922 ft | 494 kts | 36° |
| 2026-05-04 19:07 | 55.03936 | 11.02323 | 29237 ft | 490 kts | 37° |
| 2026-05-04 19:08 | 55.06382 | 11.06000 | 28994 ft | 476 kts | 37° |
| 2026-05-04 19:08 | 55.08861 | 11.09733 | 28516 ft | 466 kts | 37° |
| 2026-05-04 19:08 | 55.11295 | 11.13401 | 27686 ft | 467 kts | 38° |
| 2026-05-04 19:08 | 55.13522 | 11.16761 | 27070 ft | 463 kts | 38° |
| 2026-05-04 19:09 | 55.15931 | 11.20397 | 26459 ft | 458 kts | 38° |
| 2026-05-04 19:09 | 55.18330 | 11.24025 | 25855 ft | 453 kts | 38° |
| 2026-05-04 19:09 | 55.20395 | 11.27157 | 25340 ft | 449 kts | 38° |
| 2026-05-04 19:09 | 55.22725 | 11.30690 | 24762 ft | 444 kts | 38° |
| 2026-05-04 19:10 | 55.25036 | 11.34201 | 24085 ft | 438 kts | 38° |
| 2026-05-04 19:10 | 55.27324 | 11.37684 | 23419 ft | 432 kts | 38° |
| 2026-05-04 19:10 | 55.29352 | 11.40777 | 22716 ft | 428 kts | 38° |
| 2026-05-04 19:10 | 55.31453 | 11.43987 | 22008 ft | 423 kts | 38° |
| 2026-05-04 19:11 | 55.33646 | 11.47344 | 21291 ft | 419 kts | 38° |
| 2026-05-04 19:11 | 55.35672 | 11.50445 | 20654 ft | 415 kts | 38° |
| 2026-05-04 19:11 | 55.37836 | 11.53762 | 19980 ft | 411 kts | 38° |
| 2026-05-04 19:11 | 55.39940 | 11.56994 | 19389 ft | 405 kts | 38° |
| 2026-05-04 19:12 | 55.42014 | 11.60189 | 19196 ft | 388 kts | 38° |
| 2026-05-04 19:12 | 55.45817 | 11.66089 | 18939 ft | 342 kts | 38° |
| 2026-05-04 19:12 | 55.47024 | 11.67979 | 18803 ft | 331 kts | 38° |
| 2026-05-04 19:13 | 55.48639 | 11.70506 | 18426 ft | 324 kts | 37° |
| 2026-05-04 19:13 | 55.49757 | 11.72252 | 18094 ft | 322 kts | 37° |
| 2026-05-04 19:13 | 55.50989 | 11.74172 | 17683 ft | 319 kts | 37° |
| 2026-05-04 19:13 | 55.52646 | 11.76761 | 17129 ft | 317 kts | 37° |
| 2026-05-04 19:14 | 55.54287 | 11.79328 | 16568 ft | 315 kts | 37° |
| 2026-05-04 19:14 | 55.55850 | 11.81781 | 16056 ft | 313 kts | 37° |
| 2026-05-04 19:14 | 55.57469 | 11.84328 | 15540 ft | 311 kts | 38° |
| 2026-05-04 19:14 | 55.58457 | 11.85891 | 15224 ft | 309 kts | 38° |
| 2026-05-04 19:15 | 55.60014 | 11.88510 | 14703 ft | 310 kts | 48° |
| 2026-05-04 19:15 | 55.61074 | 11.91817 | 14210 ft | 311 kts | 70° |
| 2026-05-04 19:15 | 55.61932 | 11.96693 | 13512 ft | 309 kts | 72° |
| 2026-05-04 19:15 | 55.62020 | 11.97201 | 13427 ft | 309 kts | 72° |
| 2026-05-04 19:16 | 55.62358 | 11.99974 | 13064 ft | 307 kts | 80° |
| 2026-05-04 19:16 | 55.62843 | 12.03647 | 12637 ft | 306 kts | 73° |
| 2026-05-04 19:16 | 55.63475 | 12.07222 | 12350 ft | 303 kts | 70° |
| 2026-05-04 19:16 | 55.63937 | 12.09640 | 12143 ft | 302 kts | 70° |
| 2026-05-04 19:17 | 55.64613 | 12.13152 | 11854 ft | 300 kts | 70° |
| 2026-05-04 19:17 | 55.65263 | 12.16650 | 11510 ft | 298 kts | 71° |
| 2026-05-04 19:17 | 55.65881 | 12.20125 | 11073 ft | 295 kts | 71° |
| 2026-05-04 19:17 | 55.66194 | 12.21938 | 10820 ft | 294 kts | 72° |
| 2026-05-04 19:18 | 55.66781 | 12.25404 | 10351 ft | 291 kts | 72° |
| 2026-05-04 19:18 | 55.67353 | 12.28835 | 9897 ft | 289 kts | 72° |
| 2026-05-04 19:18 | 55.67919 | 12.32227 | 9406 ft | 286 kts | 72° |
| 2026-05-04 19:18 | 55.68473 | 12.35544 | 8945 ft | 283 kts | 72° |
| 2026-05-04 19:19 | 55.69036 | 12.38926 | 8432 ft | 282 kts | 72° |
| 2026-05-04 19:19 | 55.69512 | 12.41807 | 8028 ft | 280 kts | 72° |
| 2026-05-04 19:19 | 55.69995 | 12.44727 | 7706 ft | 278 kts | 72° |
| 2026-05-04 19:19 | 55.70538 | 12.48007 | 7335 ft | 276 kts | 72° |
| 2026-05-04 19:20 | 55.71127 | 12.51240 | 6948 ft | 273 kts | 65° |
| 2026-05-04 19:20 | 55.71963 | 12.54236 | 6581 ft | 271 kts | 60° |
| 2026-05-04 19:20 | 55.72816 | 12.57200 | 6192 ft | 269 kts | 60° |
| 2026-05-04 19:20 | 55.73450 | 12.59423 | 5894 ft | 267 kts | 60° |
| 2026-05-04 19:21 | 55.74272 | 12.62290 | 5512 ft | 265 kts | 59° |
| 2026-05-04 19:21 | 55.75320 | 12.64933 | 5127 ft | 260 kts | 47° |
| 2026-05-04 19:21 | 55.76066 | 12.66777 | 4833 ft | 260 kts | 57° |
| 2026-05-04 19:21 | 55.76874 | 12.69352 | 4465 ft | 259 kts | 60° |
| 2026-05-04 19:22 | 55.77706 | 12.72175 | 4143 ft | 256 kts | 60° |
| 2026-05-04 19:22 | 55.78509 | 12.74935 | 3943 ft | 253 kts | 60° |
| 2026-05-04 19:22 | 55.79313 | 12.77705 | 3642 ft | 252 kts | 60° |
| 2026-05-04 19:22 | 55.80120 | 12.80495 | 3358 ft | 249 kts | 60° |
| 2026-05-04 19:23 | 55.80897 | 12.83187 | 3071 ft | 247 kts | 60° |
| 2026-05-04 19:23 | 55.81618 | 12.85705 | 2989 ft | 236 kts | 60° |
| 2026-05-04 19:23 | 55.82331 | 12.88222 | 2991 ft | 218 kts | 60° |
| 2026-05-04 19:23 | 55.82896 | 12.90229 | 2987 ft | 205 kts | 60° |
| 2026-05-04 19:24 | 55.83125 | 12.91932 | 2969 ft | 201 kts | 91° |
| 2026-05-04 19:24 | 55.82661 | 12.94230 | 3005 ft | 199 kts | 131° |
| 2026-05-04 19:24 | 55.81514 | 12.95523 | 3003 ft | 196 kts | 169° |
| 2026-05-04 19:24 | 55.80413 | 12.95306 | 2989 ft | 188 kts | 212° |
| 2026-05-04 19:25 | 55.79552 | 12.93575 | 3012 ft | 182 kts | 242° |
| 2026-05-04 19:25 | 55.78706 | 12.91901 | 2997 ft | 185 kts | 223° |
| 2026-05-04 19:25 | 55.77738 | 12.90437 | 2997 ft | 184 kts | 225° |
| 2026-05-04 19:25 | 55.76778 | 12.88945 | 2998 ft | 183 kts | 225° |
| 2026-05-04 19:26 | 55.75846 | 12.87489 | 3004 ft | 184 kts | 225° |
| 2026-05-04 19:26 | 55.74889 | 12.85993 | 3003 ft | 183 kts | 225° |
| 2026-05-04 19:26 | 55.73929 | 12.84492 | 2961 ft | 184 kts | 225° |
| 2026-05-04 19:26 | 55.72971 | 12.82994 | 2780 ft | 183 kts | 225° |
| 2026-05-04 19:27 | 55.72015 | 12.81503 | 2552 ft | 183 kts | 225° |
| 2026-05-04 19:27 | 55.71058 | 12.80008 | 2310 ft | 183 kts | 225° |
| 2026-05-04 19:27 | 55.70107 | 12.78526 | 2063 ft | 181 kts | 225° |
| 2026-05-04 19:27 | 55.69176 | 12.77076 | 1815 ft | 175 kts | 226° |
| 2026-05-04 19:28 | 55.68274 | 12.75673 | 1577 ft | 170 kts | 225° |
| 2026-05-04 19:28 | 55.67403 | 12.74317 | 1349 ft | 163 kts | 225° |
| 2026-05-04 19:28 | 55.66581 | 12.73040 | 1131 ft | 151 kts | 226° |
| 2026-05-04 19:28 | 55.65823 | 12.71863 | 930 ft | 140 kts | 225° |
| 2026-05-04 19:29 | 55.65107 | 12.70749 | 745 ft | 135 kts | 224° |
| 2026-05-04 19:29 | 55.64410 | 12.69665 | 552 ft | 134 kts | 224° |
| 2026-05-04 19:29 | 55.63763 | 12.68660 | 386 ft | 134 kts | 225° |
| 2026-05-04 19:29 | 55.63143 | 12.67696 | 227 ft | 133 kts | 225° |
| 2026-05-04 19:30 | 55.62445 | 12.66617 | 44 ft | 133 kts | 224° |
| 2026-05-04 19:30 | 55.61863 | 12.65675 | 20 ft | 107 kts | 220° |
| 2026-05-04 19:30 | 55.61466 | 12.65085 | 17 ft | 64 kts | 219° |
| 2026-05-04 19:30 | 55.61268 | 12.64680 | 19 ft | 39 kts | 243° |
| 2026-05-04 19:31 | 55.61186 | 12.64263 | 18 ft | 22 kts | 252° |
| 2026-05-04 19:31 | 55.61242 | 12.64103 | 18 ft | 17 kts | 351° |
| 2026-05-04 19:31 | 55.61343 | 12.64185 | 19 ft | 16 kts | 32° |
| 2026-05-04 19:31 | 55.61426 | 12.64286 | 19 ft | 14 kts | 32° |
| 2026-05-04 19:32 | 55.61517 | 12.64387 | 17 ft | 17 kts | 32° |
| 2026-05-04 19:32 | 55.61615 | 12.64503 | 19 ft | 16 kts | 33° |
| 2026-05-04 19:32 | 55.61709 | 12.64558 | 17 ft | 15 kts | 357° |
| 2026-05-04 19:32 | 55.61826 | 12.64533 | 20 ft | 19 kts | 349° |
| 2026-05-04 19:33 | 55.61909 | 12.64505 | 18 ft | 9 kts | 348° |
| 2026-05-04 19:33 | 55.61918 | 12.64502 | 17 ft | 0 kts | 348° |
| 2026-05-04 19:33 | 55.61923 | 12.64500 | 17 ft | 2 kts | 348° |
| 2026-05-04 19:34 | 55.61950 | 12.64490 | 18 ft | 6 kts | 348° |
| 2026-05-04 19:34 | 55.62003 | 12.64472 | 17 ft | 10 kts | 349° |
| 2026-05-04 19:34 | 55.62081 | 12.64446 | 17 ft | 13 kts | 349° |
| 2026-05-04 19:34 | 55.62188 | 12.64413 | 15 ft | 18 kts | 350° |
| 2026-05-04 19:35 | 55.62274 | 12.64295 | 16 ft | 18 kts | 303° |
| 2026-05-04 19:35 | 55.62358 | 12.64070 | 15 ft | 25 kts | 303° |
| 2026-05-04 19:35 | 55.62472 | 12.63806 | 16 ft | 28 kts | 328° |
| 2026-05-04 19:35 | 55.62572 | 12.63769 | 17 ft | 1 kts | 2° |
| 2026-05-04 19:36 | 55.62593 | 12.63772 | 17 ft | 5 kts | 8° |
| 2026-05-04 19:36 | 55.62636 | 12.63804 | 17 ft | 8 kts | 30° |
| 2026-05-04 19:36 | 55.62692 | 12.63864 | 17 ft | 11 kts | 33° |
| 2026-05-04 19:36 | 55.62765 | 12.63950 | 17 ft | 14 kts | 34° |
| 2026-05-04 19:37 | 55.62809 | 12.64011 | 18 ft | 2 kts | 49° |
| 2026-05-04 19:37 | 55.62823 | 12.64051 | 17 ft | 5 kts | 64° |
| 2026-05-04 19:37 | 55.62838 | 12.64117 | 18 ft | 6 kts | 78° |
| 2026-05-04 19:37 | 55.62826 | 12.64179 | 19 ft | 5 kts | 123° |
| 2026-05-04 19:38 | 55.62814 | 12.64209 | 17 ft | 2 kts | 123° |
| 2026-05-04 19:38 | 55.62809 | 12.64222 | 19 ft | 0 kts | 123° |